Time;durP1;ratioP1;P1;durP2;ratioP2;P2;SDS_P1;SDS_P2;PMS_P1;PMS_P2;Temp;Humidity;BMP_temperature;BMP_pressure;BME280_temperature;BME280_humidity;BME280_pressure;Samples;Min_cycle;Max_cycle;Signal;HPM_P1;HPM_P2
2024/01/10 00:01:18;;;;;;;60.45;26.70;;;-3.30;99.90;;;;;;5037980;28;20670;-68
2024/01/10 00:03:44;;;;;;;66.78;27.23;;;-3.30;99.90;;;;;;5041884;28;20045;-68
2024/01/10 00:06:12;;;;;;;63.75;25.60;;;-3.40;99.90;;;;;;5042434;28;20022;-69
2024/01/10 00:08:38;;;;;;;69.13;26.98;;;-3.40;99.90;;;;;;5042566;28;20033;-68
2024/01/10 00:11:04;;;;;;;60.13;26.48;;;-3.40;99.90;;;;;;5041967;28;20038;-69
2024/01/10 00:13:31;;;;;;;61.55;25.90;;;-3.40;99.90;;;;;;5041236;28;20030;-69
2024/01/10 00:15:58;;;;;;;58.92;26.42;;;-3.40;99.90;;;;;;5042475;28;20025;-67
2024/01/10 00:18:24;;;;;;;63.78;26.50;;;-3.40;99.90;;;;;;5040911;28;20079;-70
2024/01/10 00:20:54;;;;;;;62.38;27.15;;;-3.50;99.90;;;;;;5040067;28;20072;-68
2024/01/10 00:23:20;;;;;;;65.20;26.23;;;-3.50;99.90;;;;;;5041515;28;20037;-68
2024/01/10 00:25:46;;;;;;;67.90;26.92;;;-3.50;99.90;;;;;;5041298;28;20044;-69
2024/01/10 00:28:12;;;;;;;62.30;26.23;;;-3.50;99.90;;;;;;5040592;28;20128;-70
2024/01/10 00:30:38;;;;;;;61.83;26.42;;;-3.50;99.90;;;;;;5040805;28;20494;-68
2024/01/10 00:33:04;;;;;;;60.42;26.63;;;-3.50;99.90;;;;;;5042322;28;20026;-68
2024/01/10 00:35:30;;;;;;;56.50;25.67;;;-3.60;99.90;;;;;;5042216;28;20013;-68
2024/01/10 00:37:56;;;;;;;69.18;27.33;;;-3.50;99.90;;;;;;5042328;28;20025;-68
2024/01/10 00:40:22;;;;;;;57.10;26.65;;;-3.60;99.90;;;;;;5042069;28;20022;-68
2024/01/10 00:42:48;;;;;;;63.00;27.20;;;-3.50;99.90;;;;;;5041899;28;20060;-68
2024/01/10 00:45:13;;;;;;;62.42;26.67;;;-3.60;99.90;;;;;;5040879;28;20033;-69
2024/01/10 00:47:39;;;;;;;58.13;25.92;;;-3.60;99.90;;;;;;5057804;28;20032;-68
2024/01/10 00:50:05;;;;;;;60.08;26.08;;;-3.50;99.90;;;;;;5041495;28;20029;-70
2024/01/10 00:52:31;;;;;;;68.53;26.67;;;-3.50;99.90;;;;;;5045249;28;20042;-70
2024/01/10 00:54:57;;;;;;;53.00;25.20;;;-3.50;99.90;;;;;;5046044;28;20032;-68
2024/01/10 00:57:22;;;;;;;60.72;25.75;;;-3.60;99.90;;;;;;5043997;28;20026;-70
2024/01/10 00:59:48;;;;;;;61.00;26.25;;;-3.60;99.90;;;;;;5045720;28;20021;-70
2024/01/10 01:02:13;;;;;;;62.60;27.05;;;-3.60;99.90;;;;;;5044248;28;20017;-69
2024/01/10 01:04:39;;;;;;;56.50;25.70;;;-3.60;99.90;;;;;;5045479;28;20033;-69
2024/01/10 01:07:05;;;;;;;63.95;27.58;;;-3.60;99.90;;;;;;5045923;28;20017;-70
2024/01/10 01:09:30;;;;;;;61.28;25.73;;;-3.70;99.90;;;;;;5044463;28;20083;-68
2024/01/10 01:11:56;;;;;;;60.42;25.88;;;-3.70;99.90;;;;;;5045578;28;20037;-70
2024/01/10 01:14:22;;;;;;;60.30;25.65;;;-3.70;99.90;;;;;;5045378;28;20040;-70
2024/01/10 01:16:47;;;;;;;61.67;26.27;;;-3.70;99.90;;;;;;5045786;28;20052;-70
2024/01/10 01:19:17;;;;;;;60.30;27.10;;;-3.70;99.90;;;;;;5044979;28;20085;-73
2024/01/10 01:21:46;;;;;;;59.28;25.42;;;-3.70;99.90;;;;;;5042531;28;20041;-70
2024/01/10 01:24:12;;;;;;;67.20;27.33;;;-3.70;99.90;;;;;;5043182;28;20069;-68
2024/01/10 01:26:37;;;;;;;63.40;27.40;;;-3.70;99.90;;;;;;5045225;28;20029;-70
2024/01/10 01:29:03;;;;;;;58.92;27.23;;;-3.80;99.90;;;;;;5045287;28;20032;-70
2024/01/10 01:31:29;;;;;;;65.85;27.30;;;-3.80;99.90;;;;;;5043372;28;20044;-71
2024/01/10 01:33:55;;;;;;;59.70;26.20;;;-3.80;99.90;;;;;;5043791;28;20071;-69
2024/01/10 01:36:20;;;;;;;59.10;27.75;;;-3.80;99.90;;;;;;5045067;28;20508;-72
2024/01/10 01:38:46;;;;;;;64.25;28.60;;;-3.80;99.90;;;;;;5043907;28;20025;-69
2024/01/10 01:41:12;;;;;;;65.18;27.63;;;-3.90;99.90;;;;;;5045009;28;20021;-70
2024/01/10 01:43:38;;;;;;;65.90;27.80;;;-3.80;99.90;;;;;;5045262;28;20435;-68
2024/01/10 01:46:04;;;;;;;69.78;28.02;;;-3.90;99.90;;;;;;5043635;28;20463;-68
2024/01/10 01:48:30;;;;;;;62.15;27.85;;;-3.90;99.90;;;;;;5044654;28;20061;-68
2024/01/10 01:50:59;;;;;;;63.80;28.10;;;-3.90;99.90;;;;;;5044814;28;20041;-69
2024/01/10 01:53:26;;;;;;;59.35;27.63;;;-3.90;99.90;;;;;;5044806;28;20052;-70
2024/01/10 01:55:55;;;;;;;63.88;28.75;;;-3.90;99.90;;;;;;5043358;28;20021;-70
2024/01/10 01:58:23;;;;;;;58.95;27.27;;;-3.90;99.90;;;;;;5044277;28;20034;-71
2024/01/10 02:00:51;;;;;;;63.42;28.17;;;-3.90;99.90;;;;;;5042857;28;20033;-67
2024/01/10 02:03:16;;;;;;;60.72;27.55;;;-3.90;99.90;;;;;;5044334;28;20034;-71
2024/01/10 02:05:42;;;;;;;65.60;28.42;;;-3.90;99.90;;;;;;5043618;28;20017;-70
2024/01/10 02:08:08;;;;;;;60.53;27.45;;;-3.90;99.90;;;;;;5043244;28;20040;-70
2024/01/10 02:10:34;;;;;;;61.60;27.88;;;-3.90;99.90;;;;;;5044481;28;20470;-69
2024/01/10 02:13:01;;;;;;;60.55;27.27;;;-3.90;99.90;;;;;;5044543;28;20458;-69
2024/01/10 02:15:26;;;;;;;60.17;26.88;;;-3.90;99.90;;;;;;5044379;28;20034;-68
2024/01/10 02:17:52;;;;;;;60.55;27.92;;;-3.90;99.90;;;;;;5042472;28;20032;-70
2024/01/10 02:20:18;;;;;;;65.07;28.45;;;-3.90;99.90;;;;;;5041925;28;20034;-71
2024/01/10 02:22:44;;;;;;;68.82;28.92;;;-3.90;99.90;;;;;;5044285;28;20018;-69
2024/01/10 02:25:13;;;;;;;66.82;29.27;;;-4.00;99.90;;;;;;5044273;28;20022;-70
2024/01/10 02:27:40;;;;;;;68.18;29.88;;;-4.00;99.90;;;;;;5044262;28;20033;-71
2024/01/10 02:30:07;;;;;;;71.22;29.77;;;-4.00;99.90;;;;;;5044074;28;20478;-68
2024/01/10 02:32:33;;;;;;;69.40;29.10;;;-4.00;99.90;;;;;;5043641;28;20068;-71
2024/01/10 02:34:59;;;;;;;69.20;28.95;;;-4.00;99.90;;;;;;5043653;28;20029;-71
2024/01/10 02:37:25;;;;;;;78.57;30.13;;;-4.00;99.90;;;;;;5044058;28;20030;-69
2024/01/10 02:39:51;;;;;;;71.72;30.08;;;-4.00;99.90;;;;;;5042888;28;20052;-70
2024/01/10 02:42:17;;;;;;;71.95;30.55;;;-4.00;99.90;;;;;;5043665;28;20018;-70
2024/01/10 02:44:43;;;;;;;78.30;31.20;;;-4.00;99.90;;;;;;5044030;28;20674;-70
2024/01/10 02:47:09;;;;;;;77.80;29.95;;;-4.00;99.90;;;;;;5043576;28;20030;-70
2024/01/10 02:49:34;;;;;;;86.95;32.08;;;-4.00;99.90;;;;;;5042587;28;20025;-69
2024/01/10 02:52:00;;;;;;;84.28;32.58;;;-4.00;99.90;;;;;;5043702;28;20167;-69
2024/01/10 02:54:26;;;;;;;77.35;30.17;;;-4.00;99.90;;;;;;5042531;28;20029;-68
2024/01/10 02:56:52;;;;;;;87.18;31.75;;;-4.00;99.90;;;;;;5042301;28;20493;-69
2024/01/10 02:59:17;;;;;;;84.60;31.75;;;-4.00;99.90;;;;;;5042196;28;20049;-69
2024/01/10 03:01:43;;;;;;;83.05;30.77;;;-4.00;99.90;;;;;;5043725;28;20026;-69
2024/01/10 03:04:09;;;;;;;85.75;32.10;;;-4.00;99.90;;;;;;5043556;28;20049;-68
2024/01/10 03:06:35;;;;;;;89.25;33.15;;;-4.00;99.90;;;;;;5042134;28;20033;-68
2024/01/10 03:09:01;;;;;;;87.15;33.05;;;-3.90;99.90;;;;;;5043667;28;20378;-67
2024/01/10 03:11:26;;;;;;;85.63;31.88;;;-3.90;99.90;;;;;;5043180;28;20025;-69
2024/01/10 03:14:10;;;;;;;90.97;33.35;;;-3.90;99.90;;;;;;5042525;28;20017;-71
2024/01/10 03:16:35;;;;;;;85.13;31.58;;;-3.90;99.90;;;;;;5043231;28;20036;-68
2024/01/10 03:19:01;;;;;;;81.20;29.95;;;-3.90;99.90;;;;;;5043239;28;20025;-69
2024/01/10 03:21:27;;;;;;;89.10;32.15;;;-3.90;99.90;;;;;;5043146;28;20036;-71
2024/01/10 03:23:58;;;;;;;85.10;32.20;;;-3.90;99.90;;;;;;5043202;28;20026;-68
2024/01/10 03:26:24;;;;;;;83.43;30.25;;;-3.90;99.90;;;;;;5042794;28;20036;-70
2024/01/10 03:28:50;;;;;;;92.43;32.08;;;-3.90;99.90;;;;;;5043144;28;20029;-67
2024/01/10 03:31:16;;;;;;;86.78;30.50;;;-3.90;99.90;;;;;;5042954;28;20037;-69
2024/01/10 03:33:42;;;;;;;86.63;30.33;;;-3.90;99.90;;;;;;5041810;28;20037;-67
2024/01/10 03:36:11;;;;;;;88.20;29.42;;;-3.90;99.90;;;;;;5043058;28;20022;-70
2024/01/10 03:38:37;;;;;;;79.00;28.55;;;-3.90;99.90;;;;;;5041653;28;20025;-71
2024/01/10 03:41:03;;;;;;;77.50;28.25;;;-3.90;99.90;;;;;;5041304;28;20025;-68
2024/01/10 03:43:29;;;;;;;79.47;27.98;;;-3.90;99.90;;;;;;5040646;28;20493;-70
2024/01/10 03:45:54;;;;;;;80.90;28.73;;;-3.90;99.90;;;;;;5041902;28;20029;-69
2024/01/10 03:48:20;;;;;;;81.80;28.00;;;-3.90;99.90;;;;;;5042546;28;20033;-70
2024/01/10 03:50:46;;;;;;;76.72;27.08;;;-3.90;99.90;;;;;;5041550;28;20514;-70
2024/01/10 03:53:11;;;;;;;84.22;29.85;;;-3.90;99.90;;;;;;5042762;28;20048;-70
2024/01/10 03:55:38;;;;;;;82.07;26.85;;;-3.80;99.90;;;;;;5042787;28;20030;-71
2024/01/10 03:58:03;;;;;;;78.32;27.40;;;-3.80;99.90;;;;;;5042467;28;20041;-70
2024/01/10 04:00:29;;;;;;;81.88;29.08;;;-3.80;99.90;;;;;;5042616;28;20025;-70
2024/01/10 04:02:54;;;;;;;80.57;27.90;;;-3.90;99.90;;;;;;5042369;28;20026;-69
2024/01/10 04:05:20;;;;;;;80.45;28.20;;;-3.90;99.90;;;;;;5041425;28;20025;-69
2024/01/10 04:07:46;;;;;;;78.93;28.42;;;-3.90;99.90;;;;;;5039934;28;20120;-70
2024/01/10 04:10:14;;;;;;;81.55;28.40;;;-3.80;99.90;;;;;;5042430;28;20021;-69
2024/01/10 04:12:40;;;;;;;88.70;28.85;;;-3.80;99.90;;;;;;5042605;28;20064;-70
2024/01/10 04:15:06;;;;;;;83.68;28.15;;;-3.80;99.90;;;;;;5042698;28;20053;-69
2024/01/10 04:17:32;;;;;;;81.03;27.90;;;-3.70;99.90;;;;;;5042432;28;20025;-70
2024/01/10 04:19:58;;;;;;;77.93;27.85;;;-3.80;99.90;;;;;;5042607;28;20025;-69
2024/01/10 04:22:24;;;;;;;83.57;27.73;;;-3.80;99.90;;;;;;5042410;28;20044;-71
2024/01/10 04:24:50;;;;;;;78.47;27.20;;;-3.80;99.90;;;;;;5042711;28;20127;-69
2024/01/10 04:27:16;;;;;;;79.40;27.77;;;-3.80;99.90;;;;;;5046529;28;20033;-71
2024/01/10 04:29:42;;;;;;;72.03;25.27;;;-3.80;99.90;;;;;;5045113;28;20048;-71
2024/01/10 04:32:07;;;;;;;78.32;27.27;;;-3.90;99.90;;;;;;5045850;28;20033;-70
2024/01/10 04:34:33;;;;;;;74.15;25.27;;;-3.90;99.90;;;;;;5046408;28;20551;-69
2024/01/10 04:36:59;;;;;;;73.72;25.17;;;-3.90;99.90;;;;;;5046048;28;20032;-70
2024/01/10 04:39:24;;;;;;;72.22;26.23;;;-3.90;99.90;;;;;;5045777;28;20049;-70
2024/01/10 04:41:50;;;;;;;70.45;25.23;;;-3.90;99.90;;;;;;5045958;28;20029;-68
2024/01/10 04:44:15;;;;;;;77.30;24.05;;;-4.00;99.90;;;;;;5045738;28;20053;-70
2024/01/10 04:46:41;;;;;;;74.93;25.90;;;-4.00;99.90;;;;;;5044626;28;20029;-71
2024/01/10 04:49:07;;;;;;;70.57;25.17;;;-4.00;99.90;;;;;;5046157;28;20032;-72
2024/01/10 04:51:33;;;;;;;73.93;25.38;;;-4.00;99.90;;;;;;5045478;28;20033;-70
2024/01/10 04:53:59;;;;;;;76.25;26.63;;;-4.00;99.90;;;;;;5045779;28;20124;-70
2024/01/10 04:56:25;;;;;;;75.13;26.27;;;-4.00;99.90;;;;;;5044115;28;20057;-70
2024/01/10 04:58:51;;;;;;;79.25;26.25;;;-3.90;99.90;;;;;;5044360;28;20029;-68
2024/01/10 05:01:17;;;;;;;69.75;25.30;;;-3.90;99.90;;;;;;5045565;28;20485;-68
2024/01/10 05:03:42;;;;;;;74.60;26.00;;;-3.90;99.90;;;;;;5044217;28;20620;-69
2024/01/10 05:06:08;;;;;;;75.15;25.55;;;-3.90;99.90;;;;;;5045272;28;20022;-69
2024/01/10 05:08:33;;;;;;;76.93;27.17;;;-3.90;99.90;;;;;;5045673;28;20036;-69
2024/01/10 05:10:59;;;;;;;80.45;26.65;;;-3.90;99.90;;;;;;5045442;28;20107;-70
2024/01/10 05:13:24;;;;;;;74.40;25.45;;;-3.90;99.90;;;;;;5043844;28;20390;-71
2024/01/10 05:15:50;;;;;;;75.45;25.40;;;-3.90;99.90;;;;;;5039149;28;20052;-69
2024/01/10 05:18:16;;;;;;;80.97;27.95;;;-3.90;99.90;;;;;;5040721;28;20044;-70
2024/01/10 05:20:42;;;;;;;78.75;26.92;;;-3.90;99.90;;;;;;5043698;28;20036;-68
2024/01/10 05:23:08;;;;;;;81.50;27.17;;;-3.90;99.90;;;;;;5043188;28;20029;-70
2024/01/10 05:25:33;;;;;;;75.43;25.48;;;-3.90;99.90;;;;;;5044875;28;20048;-68
2024/01/10 05:27:59;;;;;;;81.68;27.67;;;-3.90;99.90;;;;;;5044437;28;20029;-69
2024/01/10 05:30:25;;;;;;;83.15;26.73;;;-4.00;99.90;;;;;;5045074;28;20459;-69
2024/01/10 05:32:50;;;;;;;73.00;25.73;;;-4.00;99.90;;;;;;5045144;28;20029;-72
2024/01/10 05:35:16;;;;;;;84.97;27.48;;;-4.00;99.90;;;;;;5044520;28;20025;-71
2024/01/10 05:37:42;;;;;;;87.25;28.73;;;-4.00;99.90;;;;;;5039471;28;20052;-69
2024/01/10 05:40:08;;;;;;;86.10;27.98;;;-4.00;99.90;;;;;;5043050;28;20072;-69
2024/01/10 05:42:33;;;;;;;77.70;26.58;;;-4.00;99.90;;;;;;5041262;28;20691;-69
2024/01/10 05:45:00;;;;;;;87.45;28.75;;;-4.00;99.90;;;;;;5043602;28;20097;-69
2024/01/10 05:47:26;;;;;;;85.22;29.77;;;-4.00;99.90;;;;;;5043175;28;20559;-68
2024/01/10 05:49:53;;;;;;;82.35;26.80;;;-4.00;99.90;;;;;;5044379;28;20018;-68
2024/01/10 05:52:18;;;;;;;80.75;26.17;;;-4.00;99.90;;;;;;5044636;28;20037;-68
2024/01/10 05:54:44;;;;;;;88.40;27.25;;;-4.00;99.90;;;;;;5042355;28;20433;-69
2024/01/10 05:57:10;;;;;;;81.50;28.52;;;-4.00;99.90;;;;;;5044466;28;20033;-69
2024/01/10 05:59:36;;;;;;;79.97;27.08;;;-4.00;99.90;;;;;;5044345;28;20026;-70
2024/01/10 06:02:02;;;;;;;78.03;26.02;;;-4.00;99.90;;;;;;5044222;28;20736;-69
2024/01/10 06:04:30;;;;;;;76.40;27.20;;;-4.00;99.90;;;;;;5042932;28;20056;-69
2024/01/10 06:06:58;;;;;;;82.35;27.67;;;-4.00;99.90;;;;;;5043155;28;20097;-70
2024/01/10 06:09:23;;;;;;;84.38;26.67;;;-4.00;99.90;;;;;;5043724;28;20104;-69
2024/01/10 06:11:49;;;;;;;74.50;25.70;;;-4.00;99.90;;;;;;5043061;28;20076;-69
2024/01/10 06:14:15;;;;;;;72.65;25.60;;;-4.10;99.90;;;;;;5044046;28;20032;-70
2024/01/10 06:16:41;;;;;;;79.13;26.77;;;-4.10;99.90;;;;;;5043953;28;20048;-71
2024/01/10 06:19:06;;;;;;;76.75;26.17;;;-4.10;99.90;;;;;;5042963;28;20067;-69
2024/01/10 06:21:32;;;;;;;70.15;26.02;;;-4.10;99.90;;;;;;5044081;28;20029;-69
2024/01/10 06:23:58;;;;;;;78.07;26.15;;;-4.10;99.90;;;;;;5040688;28;20063;-68
2024/01/10 06:26:23;;;;;;;77.10;26.75;;;-4.10;99.90;;;;;;5037678;28;20044;-70
2024/01/10 06:28:49;;;;;;;76.15;26.05;;;-4.10;99.90;;;;;;5042565;28;20471;-69
2024/01/10 06:31:14;;;;;;;74.55;25.55;;;-4.00;99.90;;;;;;5042083;28;20041;-71
2024/01/10 06:33:40;;;;;;;78.45;27.25;;;-4.00;99.90;;;;;;5041809;28;20115;-71
2024/01/10 06:36:06;;;;;;;80.03;26.55;;;-4.00;99.90;;;;;;5041868;28;20033;-69
2024/01/10 06:38:31;;;;;;;76.78;25.45;;;-4.10;99.90;;;;;;5040760;28;20029;-69
2024/01/10 06:40:57;;;;;;;91.55;28.67;;;-4.10;99.90;;;;;;5038784;28;20418;-67
2024/01/10 06:43:23;;;;;;;83.82;25.60;;;-4.10;99.90;;;;;;5041329;28;20048;-69
2024/01/10 06:45:49;;;;;;;89.20;27.45;;;-4.10;99.90;;;;;;5041365;28;20071;-69
2024/01/10 06:48:15;;;;;;;80.43;27.73;;;-4.10;99.90;;;;;;5042052;28;20029;-69
2024/01/10 06:50:40;;;;;;;91.47;29.02;;;-4.20;99.90;;;;;;5039828;28;20025;-69
2024/01/10 06:53:07;;;;;;;89.75;29.50;;;-4.20;99.90;;;;;;5040729;28;20055;-70
2024/01/10 06:55:33;;;;;;;90.93;28.45;;;-4.20;99.90;;;;;;5042415;28;20021;-68
2024/01/10 06:57:58;;;;;;;95.35;29.65;;;-4.20;99.90;;;;;;5041333;28;20697;-67
2024/01/10 07:00:24;;;;;;;93.28;30.10;;;-4.20;99.90;;;;;;5040023;28;20049;-69
2024/01/10 07:02:50;;;;;;;86.53;29.58;;;-4.20;99.90;;;;;;5039108;28;20022;-69
2024/01/10 07:05:15;;;;;;;88.93;28.27;;;-4.20;99.90;;;;;;5040144;28;20033;-68
2024/01/10 07:07:43;;;;;;;87.60;28.98;;;-4.20;99.90;;;;;;5054907;28;20037;-69
2024/01/10 07:10:10;;;;;;;84.03;26.63;;;-4.20;99.90;;;;;;5040884;28;20116;-70
2024/01/10 07:12:36;;;;;;;91.25;28.40;;;-4.20;99.90;;;;;;5040305;28;20088;-69
2024/01/10 07:15:04;;;;;;;86.97;28.17;;;-4.20;99.90;;;;;;5039921;28;20033;-68
2024/01/10 07:17:30;;;;;;;81.38;25.92;;;-4.20;99.90;;;;;;5035653;28;20034;-69
2024/01/10 07:19:56;;;;;;;93.00;29.10;;;-4.20;99.90;;;;;;5039852;28;20593;-69
2024/01/10 07:22:22;;;;;;;95.70;29.52;;;-4.20;99.90;;;;;;5036284;28;20036;-69
2024/01/10 07:24:48;;;;;;;91.53;29.50;;;-4.20;99.90;;;;;;5034433;28;20049;-69
2024/01/10 07:27:14;;;;;;;96.43;28.70;;;-4.20;99.90;;;;;;5039179;28;20037;-70
2024/01/10 07:29:40;;;;;;;87.72;28.58;;;-4.20;99.90;;;;;;5037766;28;20040;-70
2024/01/10 07:32:11;;;;;;;96.57;29.00;;;-4.20;99.90;;;;;;5037149;28;20159;-70
2024/01/10 07:34:39;;;;;;;98.05;29.58;;;-4.20;99.90;;;;;;5040071;28;20025;-69
2024/01/10 07:37:05;;;;;;;93.63;30.40;;;-4.10;99.90;;;;;;5040938;28;20052;-68
2024/01/10 07:39:31;;;;;;;86.32;28.63;;;-4.10;99.90;;;;;;5041071;28;20022;-70
2024/01/10 07:41:56;;;;;;;89.50;29.08;;;-4.10;99.90;;;;;;5041996;28;20017;-70
2024/01/10 07:44:22;;;;;;;82.30;28.15;;;-4.10;99.90;;;;;;5035990;28;20063;-71
2024/01/10 07:46:47;;;;;;;86.72;27.33;;;-4.10;99.90;;;;;;5036568;28;20088;-70
2024/01/10 07:49:16;;;;;;;83.90;27.45;;;-4.10;99.90;;;;;;5035046;28;20030;-69
2024/01/10 07:51:42;;;;;;;84.60;28.00;;;-4.10;99.90;;;;;;5041062;28;20052;-69
2024/01/10 07:54:07;;;;;;;90.00;27.55;;;-4.20;99.90;;;;;;5042580;28;20029;-70
2024/01/10 07:56:33;;;;;;;88.53;27.92;;;-4.10;99.90;;;;;;5039905;28;20029;-69
2024/01/10 07:58:58;;;;;;;80.50;28.08;;;-4.10;99.90;;;;;;5040788;28;20052;-68
2024/01/10 08:01:24;;;;;;;76.15;25.05;;;-4.00;99.90;;;;;;5041062;28;20022;-67
2024/01/10 08:03:50;;;;;;;86.13;27.42;;;-4.10;99.90;;;;;;5039834;28;20045;-70
2024/01/10 08:06:15;;;;;;;81.20;28.10;;;-4.00;99.90;;;;;;5040994;28;20060;-70
2024/01/10 08:08:41;;;;;;;102.82;33.47;;;-4.00;99.90;;;;;;5037944;28;20101;-71
2024/01/10 08:11:10;;;;;;;90.15;28.83;;;-3.90;99.90;;;;;;5036804;28;20049;-70
2024/01/10 08:13:35;;;;;;;87.80;31.52;;;-3.80;99.90;;;;;;5037833;28;20041;-70
2024/01/10 08:16:01;;;;;;;89.30;30.13;;;-3.60;99.90;;;;;;5039248;28;20061;-71
2024/01/10 08:18:26;;;;;;;92.18;32.53;;;-3.40;99.90;;;;;;5042186;28;20030;-70
2024/01/10 08:20:52;;;;;;;78.43;27.67;;;-3.30;99.90;;;;;;5039691;28;20041;-68
2024/01/10 08:23:17;;;;;;;82.13;28.58;;;-3.10;99.90;;;;;;5036564;28;20060;-68
2024/01/10 08:25:44;;;;;;;78.55;28.23;;;-2.90;99.90;;;;;;5053306;28;20101;-69
2024/01/10 08:28:10;;;;;;;72.32;25.52;;;-2.70;99.90;;;;;;5037672;28;20060;-69
2024/01/10 08:30:35;;;;;;;62.53;23.20;;;-2.60;99.90;;;;;;5041047;28;20364;-68
2024/01/10 08:33:01;;;;;;;52.78;20.70;;;-2.50;99.90;;;;;;5040065;28;20034;-69
2024/01/10 08:35:27;;;;;;;63.05;23.23;;;-2.50;99.90;;;;;;5040453;28;20078;-68
2024/01/10 08:37:52;;;;;;;55.03;21.45;;;-2.50;99.90;;;;;;5038995;28;20120;-69
2024/01/10 08:40:18;;;;;;;51.65;21.60;;;-2.40;99.90;;;;;;5039290;28;20083;-68
2024/01/10 08:42:43;;;;;;;46.97;18.55;;;-2.50;99.90;;;;;;5037406;28;20037;-68
2024/01/10 08:45:11;;;;;;;51.55;19.85;;;-2.50;99.90;;;;;;5040943;28;20040;-69
2024/01/10 08:47:37;;;;;;;51.13;19.83;;;-2.40;99.90;;;;;;5038792;28;20030;-70
2024/01/10 08:50:08;;;;;;;49.22;18.35;;;-2.20;99.90;;;;;;5038161;28;20079;-69
2024/01/10 08:52:37;;;;;;;49.20;17.80;;;-2.00;99.90;;;;;;5034273;28;20639;-71
2024/01/10 08:55:04;;;;;;;47.50;18.17;;;-1.70;99.90;;;;;;5040687;28;20064;-69
2024/01/10 08:57:30;;;;;;;46.28;18.80;;;-1.50;99.90;;;;;;5039150;28;20080;-69
2024/01/10 08:59:55;;;;;;;45.95;18.23;;;-1.40;99.90;;;;;;5040703;28;20021;-69
2024/01/10 09:02:23;;;;;;;46.92;18.02;;;-1.40;99.90;;;;;;5041843;28;20029;-70
2024/01/10 09:04:51;;;;;;;44.72;18.55;;;-1.30;99.90;;;;;;5040494;28;20049;-67
2024/01/10 09:07:18;;;;;;;49.25;19.08;;;-1.20;99.90;;;;;;5039190;28;20391;-68
2024/01/10 09:09:43;;;;;;;47.58;17.83;;;-1.00;99.90;;;;;;5038703;28;20021;-67
2024/01/10 09:12:09;;;;;;;46.35;18.65;;;-0.90;99.90;;;;;;5041448;28;20037;-69
2024/01/10 09:14:35;;;;;;;45.13;18.00;;;-0.80;99.90;;;;;;5041141;28;20056;-69
2024/01/10 09:17:02;;;;;;;45.05;17.70;;;-1.00;99.90;;;;;;5042519;28;20021;-68
2024/01/10 09:19:30;;;;;;;50.38;17.95;;;-1.00;99.90;;;;;;5040900;28;20534;-68
2024/01/10 09:21:57;;;;;;;49.63;18.92;;;-1.30;99.90;;;;;;5039180;28;20232;-69
2024/01/10 09:24:25;;;;;;;43.33;18.08;;;-1.50;99.90;;;;;;5043514;28;20034;-69
2024/01/10 09:26:50;;;;;;;45.60;18.70;;;-1.50;99.90;;;;;;5042890;28;20021;-69
2024/01/10 09:29:16;;;;;;;50.40;18.30;;;-1.50;99.90;;;;;;5043843;28;20029;-68
2024/01/10 09:31:41;;;;;;;48.17;17.25;;;-1.50;99.90;;;;;;5040688;28;20042;-68
2024/01/10 09:34:07;;;;;;;43.25;17.65;;;-1.50;99.90;;;;;;5043882;28;20036;-68
2024/01/10 09:36:33;;;;;;;45.67;19.30;;;-1.40;99.90;;;;;;5040231;28;20026;-67
2024/01/10 09:38:58;;;;;;;44.28;18.27;;;-1.20;99.90;;;;;;5042084;28;20037;-68
2024/01/10 09:41:28;;;;;;;45.40;17.92;;;-1.00;99.90;;;;;;5043390;28;20021;-69
2024/01/10 09:43:53;;;;;;;40.38;17.65;;;-0.60;99.90;;;;;;5042310;28;20026;-68
2024/01/10 09:46:19;;;;;;;42.83;17.63;;;-0.30;99.90;;;;;;5043542;28;20026;-67
2024/01/10 09:48:45;;;;;;;44.72;18.30;;;-0.10;99.90;;;;;;5044436;28;20041;-68
2024/01/10 09:51:12;;;;;;;40.17;17.85;;;0.20;99.90;;;;;;5044445;28;20120;-67
2024/01/10 09:53:42;;;;;;;44.03;18.27;;;0.60;99.90;;;;;;5042789;28;20375;-68
2024/01/10 09:56:10;;;;;;;42.97;17.23;;;0.90;99.90;;;;;;5043927;28;20092;-68
2024/01/10 09:58:39;;;;;;;40.50;17.58;;;1.20;99.90;;;;;;5042536;28;20028;-67
2024/01/10 10:01:06;;;;;;;39.92;17.90;;;1.60;99.90;;;;;;5043659;28;20147;-67
2024/01/10 10:03:37;;;;;;;42.67;18.52;;;1.80;99.90;;;;;;5043243;28;20065;-69
2024/01/10 10:06:03;;;;;;;41.42;18.23;;;1.90;99.90;;;;;;5043137;28;20017;-68
2024/01/10 10:08:29;;;;;;;38.63;17.05;;;2.20;99.90;;;;;;5042174;28;20021;-68
2024/01/10 10:10:55;;;;;;;44.05;17.88;;;2.60;99.90;;;;;;5041806;28;20064;-68
2024/01/10 10:13:29;;;;;;;37.42;16.83;;;2.80;99.90;;;;;;5031772;28;20038;-70
2024/01/10 10:16:04;;;;;;;38.28;17.92;;;2.80;99.90;;;;;;5041939;28;20105;-69
2024/01/10 10:18:31;;;;;;;34.75;16.27;;;2.80;99.90;;;;;;5038273;28;20025;-65
2024/01/10 10:21:09;;;;;;;40.85;17.55;;;3.00;99.90;;;;;;5029415;28;20036;-66
2024/01/10 10:23:40;;;;;;;36.85;17.13;;;3.10;99.90;;;;;;5035875;28;20151;-68
2024/01/10 10:26:20;;;;;;;40.00;17.20;;;3.20;99.90;;;;;;5040499;28;20399;-69
2024/01/10 10:28:49;;;;;;;34.75;16.58;;;3.30;99.90;;;;;;5040826;28;20032;-68
2024/01/10 10:31:16;;;;;;;35.47;16.38;;;3.40;99.90;;;;;;5041244;28;20506;-66
2024/01/10 10:33:43;;;;;;;34.42;16.85;;;3.30;99.90;;;;;;5042191;28;20026;-69
2024/01/10 10:36:09;;;;;;;37.67;17.23;;;3.40;99.90;;;;;;5042984;28;20009;-68
2024/01/10 10:38:36;;;;;;;38.70;17.33;;;3.40;99.90;;;;;;5043338;28;20018;-67
2024/01/10 10:41:06;;;;;;;37.60;17.70;;;3.40;99.90;;;;;;5041125;28;20025;-68
2024/01/10 10:43:37;;;;;;;35.72;16.77;;;3.50;99.90;;;;;;5042985;28;20025;-67
2024/01/10 10:46:09;;;;;;;33.25;16.83;;;3.50;99.90;;;;;;5039150;28;20081;-68
2024/01/10 10:48:35;;;;;;;36.65;17.23;;;3.50;99.90;;;;;;5038388;28;20030;-67
2024/01/10 10:51:28;;;;;;;36.40;17.52;;;3.70;99.90;;;;;;5042505;28;20052;-68
2024/01/10 10:53:54;;;;;;;31.48;15.90;;;4.00;99.90;;;;;;5040875;28;20080;-67
2024/01/10 10:56:20;;;;;;;34.78;17.13;;;4.20;99.90;;;;;;5042073;28;20064;-68
2024/01/10 10:58:46;;;;;;;33.97;16.38;;;4.50;99.90;;;;;;5041088;28;20030;-68
2024/01/10 11:01:13;;;;;;;31.75;16.10;;;4.60;99.90;;;;;;5042780;28;20025;-67
2024/01/10 11:03:40;;;;;;;33.28;16.63;;;4.60;99.90;;;;;;5042655;28;20042;-69
2024/01/10 11:06:06;;;;;;;30.17;15.30;;;4.20;99.90;;;;;;5038553;28;20116;-70
2024/01/10 11:08:39;;;;;;;30.80;15.43;;;4.00;99.90;;;;;;5037534;28;20044;-67
2024/01/10 11:11:15;;;;;;;36.00;17.47;;;3.90;99.90;;;;;;5037414;28;20061;-66
2024/01/10 11:13:46;;;;;;;31.27;15.93;;;3.90;99.90;;;;;;5040990;28;20776;-67
2024/01/10 11:17:08;;;;;;;32.92;16.42;;;4.10;99.90;;;;;;5035181;28;20056;-69
2024/01/10 11:20:04;;;;;;;31.15;15.45;;;4.50;99.90;;;;;;5025543;28;20052;-68
2024/01/10 11:22:35;;;;;;;30.05;15.15;;;4.90;99.90;;;;;;5040487;28;20108;-69
2024/01/10 11:25:01;;;;;;;33.05;15.45;;;5.30;99.90;;;;;;5042609;28;20068;-68
2024/01/10 11:27:27;;;;;;;28.08;14.18;;;5.60;99.90;;;;;;5039121;28;21566;-69
2024/01/10 11:29:53;;;;;;;26.13;14.32;;;5.90;99.90;;;;;;5042219;28;20053;-68
2024/01/10 11:32:23;;;;;;;27.90;14.30;;;5.90;99.90;;;;;;5037598;28;20522;-65
2024/01/10 11:34:59;;;;;;;28.60;14.23;;;5.90;99.90;;;;;;5040319;28;20034;-67
2024/01/10 11:37:44;;;;;;;25.70;13.68;;;6.10;99.90;;;;;;5041542;28;20030;-67
2024/01/10 11:40:13;;;;;;;24.25;13.27;;;6.60;99.90;;;;;;5039750;28;20029;-66
2024/01/10 11:42:42;;;;;;;25.73;14.15;;;6.80;99.90;;;;;;5039620;28;20017;-65
2024/01/10 11:45:08;;;;;;;25.00;13.93;;;7.20;99.90;;;;;;5040913;28;20029;-66
2024/01/10 11:47:34;;;;;;;25.05;13.45;;;7.50;99.90;;;;;;5040441;28;20029;-67
2024/01/10 11:50:02;;;;;;;23.83;13.43;;;7.70;99.90;;;;;;5040259;28;20037;-67
2024/01/10 11:52:36;;;;;;;26.60;14.38;;;7.60;99.90;;;;;;5041857;28;20048;-66
2024/01/10 11:55:04;;;;;;;23.33;13.07;;;7.80;99.90;;;;;;5041142;28;20483;-66
2024/01/10 11:57:33;;;;;;;23.35;13.32;;;8.00;99.90;;;;;;5039538;28;20021;-66
2024/01/10 12:00:05;;;;;;;23.25;13.20;;;8.00;99.90;;;;;;5040134;28;20029;-67
2024/01/10 12:02:33;;;;;;;22.60;13.70;;;8.20;99.90;;;;;;5040131;28;20382;-68
2024/01/10 12:04:58;;;;;;;23.13;13.77;;;8.10;99.90;;;;;;5038196;28;20046;-68
2024/01/10 12:07:25;;;;;;;22.40;13.05;;;8.20;99.90;;;;;;5035103;28;20021;-67
2024/01/10 12:09:50;;;;;;;23.80;14.43;;;8.20;99.90;;;;;;5036584;28;20029;-66
2024/01/10 12:12:16;;;;;;;24.70;14.73;;;8.30;99.90;;;;;;5037191;28;20045;-67
2024/01/10 12:14:48;;;;;;;26.60;15.85;;;8.40;99.90;;;;;;5039080;28;20083;-67
2024/01/10 12:17:14;;;;;;;23.92;14.63;;;8.50;99.90;;;;;;5038153;28;20022;-68
2024/01/10 12:19:44;;;;;;;27.20;14.70;;;8.40;99.90;;;;;;5040191;28;20079;-66
2024/01/10 12:22:10;;;;;;;23.42;13.77;;;8.40;99.90;;;;;;5038073;28;20029;-67
2024/01/10 12:24:46;;;;;;;23.70;14.30;;;8.30;99.90;;;;;;5037702;28;20052;-67
2024/01/10 12:27:11;;;;;;;24.80;14.20;;;8.10;99.90;;;;;;5040812;28;20060;-67